createdAt,value
2022-09-27T00:00:47.320Z,981.56
2022-09-27T00:01:47.300Z,981.55
2022-09-27T00:02:47.285Z,981.5
2022-09-27T00:03:47.327Z,981.51
2022-09-27T00:04:47.262Z,981.56
2022-09-27T00:05:47.252Z,981.49
2022-09-27T00:06:47.244Z,981.52
2022-09-27T00:07:47.232Z,981.54
2022-09-27T00:08:47.260Z,981.57
2022-09-27T00:09:47.218Z,981.6
2022-09-27T00:10:47.200Z,981.51
2022-09-27T00:11:47.193Z,981.48
2022-09-27T00:12:47.185Z,981.55
2022-09-27T00:13:47.170Z,981.51
2022-09-27T00:14:47.155Z,981.53
2022-09-27T00:15:47.186Z,981.41
2022-09-27T00:16:47.135Z,981.46
2022-09-27T00:17:47.126Z,981.45
2022-09-27T00:18:47.120Z,981.44
2022-09-27T00:19:47.103Z,981.48
2022-09-27T00:20:47.097Z,981.46
2022-09-27T00:21:47.088Z,981.46
2022-09-27T00:22:47.074Z,981.41
2022-09-27T00:23:47.062Z,981.38
2022-09-27T00:24:47.048Z,981.47
2022-09-27T00:25:47.042Z,981.5
2022-09-27T00:26:47.032Z,981.44
2022-09-27T00:27:47.120Z,981.44
2022-09-27T00:28:47.006Z,981.43
2022-09-27T00:29:46.999Z,981.41
2022-09-27T00:30:46.987Z,981.39
2022-09-27T00:31:46.972Z,981.43
2022-09-27T00:32:46.973Z,981.41
2022-09-27T00:33:46.948Z,981.45
2022-09-27T00:34:46.940Z,981.38
2022-09-27T00:35:46.934Z,981.4
2022-09-27T00:36:46.919Z,981.44
2022-09-27T00:37:46.907Z,981.39
2022-09-27T00:38:46.902Z,981.38
2022-09-27T00:39:46.957Z,981.43
2022-09-27T00:40:46.876Z,981.42
2022-09-27T00:41:46.862Z,981.42
2022-09-27T00:42:46.852Z,981.38
2022-09-27T00:43:46.841Z,981.39
2022-09-27T00:44:46.841Z,981.32
2022-09-27T00:45:46.819Z,981.32
2022-09-27T00:46:46.813Z,981.38
2022-09-27T00:47:46.800Z,981.31
2022-09-27T00:48:46.791Z,981.39
2022-09-27T00:49:46.777Z,981.35
2022-09-27T00:50:46.777Z,981.31
2022-09-27T00:51:46.861Z,981.34
2022-09-27T00:52:46.744Z,981.27
2022-09-27T00:53:46.737Z,981.31
2022-09-27T00:54:46.725Z,981.29
2022-09-27T00:55:46.713Z,981.26
2022-09-27T00:56:46.713Z,981.24
2022-09-27T00:57:46.691Z,981.21
2022-09-27T00:58:46.681Z,981.26
2022-09-27T00:59:46.674Z,981.23
2022-09-27T01:00:46.661Z,981.26
2022-09-27T01:01:46.647Z,981.27
2022-09-27T01:02:46.652Z,981.25
2022-09-27T01:03:46.682Z,981.29
2022-09-27T01:04:46.617Z,981.25
2022-09-27T01:05:46.608Z,981.26
2022-09-27T01:06:46.594Z,981.33
2022-09-27T01:07:46.586Z,981.31
2022-09-27T01:08:46.590Z,981.3
2022-09-27T01:09:46.562Z,981.33
2022-09-27T01:10:46.552Z,981.26
2022-09-27T01:11:46.541Z,981.22
2022-09-27T01:12:46.535Z,981.24
2022-09-27T01:13:46.524Z,981.28
2022-09-27T01:14:46.526Z,981.27
2022-09-27T01:15:46.500Z,981.25
2022-09-27T01:16:46.487Z,981.28
2022-09-27T01:17:46.483Z,981.27
2022-09-27T01:18:46.469Z,981.26
2022-09-27T01:19:46.459Z,981.27
2022-09-27T01:20:46.464Z,981.27
2022-09-27T01:21:46.433Z,981.26
2022-09-27T01:22:46.427Z,981.24
2022-09-27T01:23:46.416Z,981.24
2022-09-27T01:24:46.408Z,981.25
2022-09-27T01:25:46.396Z,981.26
2022-09-27T01:26:46.389Z,981.22
2022-09-27T01:27:46.419Z,981.24
2022-09-27T01:28:46.368Z,981.23
2022-09-27T01:29:46.351Z,981.23
2022-09-27T01:30:46.349Z,981.21
2022-09-27T01:31:46.332Z,981.2
2022-09-27T01:32:46.343Z,981.26
2022-09-27T01:33:46.313Z,981.18
2022-09-27T01:34:46.295Z,981.28
2022-09-27T01:35:46.286Z,981.2
2022-09-27T01:36:46.278Z,981.2
2022-09-27T01:37:46.271Z,981.19
2022-09-27T01:38:46.262Z,981.19
2022-09-27T01:39:47.243Z,981.17
2022-09-27T01:40:46.234Z,981.15
2022-09-27T01:41:46.223Z,981.14
2022-09-27T01:42:46.211Z,981.19
2022-09-27T01:43:46.201Z,981.14
2022-09-27T01:44:46.198Z,981.17
2022-09-27T01:45:46.177Z,981.16
2022-09-27T01:46:46.168Z,981.14
2022-09-27T01:47:46.162Z,981.17
2022-09-27T01:48:46.146Z,981.12
2022-09-27T01:49:46.134Z,981.13
2022-09-27T01:50:46.135Z,981.13
2022-09-27T01:51:46.114Z,981.1
2022-09-27T01:52:46.111Z,981.08
2022-09-27T01:53:46.090Z,981.13
2022-09-27T01:54:46.083Z,981.08
2022-09-27T01:55:46.072Z,981.11
2022-09-27T01:56:46.075Z,981.07
2022-09-27T01:57:46.048Z,981.08
2022-09-27T01:58:46.040Z,981.07
2022-09-27T01:59:46.030Z,981.11
2022-09-27T02:00:46.019Z,981.02
2022-09-27T02:01:46.009Z,981.07
2022-09-27T02:02:46.008Z,981.07
2022-09-27T02:03:45.985Z,981.14
2022-09-27T02:04:45.973Z,981.12
2022-09-27T02:05:45.967Z,981.1
2022-09-27T02:06:45.957Z,981.15
2022-09-27T02:07:45.940Z,981.12
2022-09-27T02:08:45.957Z,981.12
2022-09-27T02:09:45.920Z,981.11
2022-09-27T02:10:45.911Z,981.09
2022-09-27T02:11:45.898Z,981.13
2022-09-27T02:12:45.890Z,981.1
2022-09-27T02:13:45.879Z,981.1
2022-09-27T02:14:45.876Z,981.07
2022-09-27T02:15:45.857Z,981.12
2022-09-27T02:16:45.848Z,981.1
2022-09-27T02:17:45.834Z,981.15
2022-09-27T02:18:45.827Z,981.14
2022-09-27T02:19:45.818Z,981.12
2022-09-27T02:20:45.809Z,981.1
2022-09-27T02:21:45.789Z,981.12
2022-09-27T02:22:45.781Z,981.08
2022-09-27T02:23:45.773Z,981.08
2022-09-27T02:24:45.758Z,981.07
2022-09-27T02:25:45.748Z,981.09
2022-09-27T02:26:45.748Z,981.08
2022-09-27T02:27:45.728Z,981.06
2022-09-27T02:28:45.731Z,981.09
2022-09-27T02:29:45.705Z,981.09
2022-09-27T02:30:45.707Z,981.15
2022-09-27T02:31:45.692Z,981.06
2022-09-27T02:32:45.672Z,981.07
2022-09-27T02:33:45.664Z,981.09
2022-09-27T02:34:45.660Z,981.06
2022-09-27T02:35:45.641Z,981.11
2022-09-27T02:36:45.633Z,981.16
2022-09-27T02:37:45.617Z,981.17
2022-09-27T02:38:45.609Z,981.18
2022-09-27T02:39:45.593Z,981.15
2022-09-27T02:40:45.585Z,981.09
2022-09-27T02:41:45.573Z,981.07
2022-09-27T02:42:45.565Z,981.18
2022-09-27T02:43:45.551Z,981.18
2022-09-27T02:44:45.540Z,981.2
2022-09-27T02:45:45.530Z,981.19
2022-09-27T02:46:45.516Z,981.15
2022-09-27T02:47:45.506Z,981.19
2022-09-27T02:48:45.493Z,981.22
2022-09-27T02:49:45.486Z,981.21
2022-09-27T02:50:45.474Z,981.19
2022-09-27T02:51:45.468Z,981.31
2022-09-27T02:52:45.451Z,981.21
2022-09-27T02:53:45.444Z,981.31
2022-09-27T02:54:45.428Z,981.33
2022-09-27T02:55:45.416Z,981.33
2022-09-27T02:56:45.415Z,981.35
2022-09-27T02:57:45.396Z,981.36
2022-09-27T02:58:45.384Z,981.36
2022-09-27T02:59:45.382Z,981.34
2022-09-27T03:00:45.366Z,981.37
2022-09-27T03:01:45.356Z,981.42
2022-09-27T03:02:45.347Z,981.4
2022-09-27T03:03:45.335Z,981.38
2022-09-27T03:04:45.325Z,981.45
2022-09-27T03:05:45.310Z,981.38
2022-09-27T03:06:45.296Z,981.36
2022-09-27T03:07:45.286Z,981.4
2022-09-27T03:08:45.275Z,981.42
2022-09-27T03:09:45.262Z,981.4
2022-09-27T03:10:45.250Z,981.43
2022-09-27T03:11:45.245Z,981.48
2022-09-27T03:12:45.231Z,981.42
2022-09-27T03:13:45.227Z,981.38
2022-09-27T03:14:45.215Z,981.4
2022-09-27T03:15:45.203Z,981.43
2022-09-27T03:16:45.186Z,981.46
2022-09-27T03:17:45.174Z,981.4
2022-09-27T03:18:45.163Z,981.45
2022-09-27T03:19:45.155Z,981.44
2022-09-27T03:20:45.155Z,981.51
2022-09-27T03:21:45.133Z,981.49
2022-09-27T03:22:45.123Z,981.51
2022-09-27T03:23:45.109Z,981.47
2022-09-27T03:24:45.099Z,981.54
2022-09-27T03:25:45.088Z,981.49
2022-09-27T03:26:45.085Z,981.51
2022-09-27T03:27:45.064Z,981.5
2022-09-27T03:28:45.063Z,981.51
2022-09-27T03:29:45.044Z,981.5
2022-09-27T03:30:45.033Z,981.59
2022-09-27T03:31:45.020Z,981.53
2022-09-27T03:32:45.014Z,981.52
2022-09-27T03:33:45.000Z,981.59
2022-09-27T03:34:44.997Z,981.55
2022-09-27T03:35:44.980Z,981.59
2022-09-27T03:36:44.964Z,981.56
2022-09-27T03:37:44.956Z,981.54
2022-09-27T03:38:44.949Z,981.57
2022-09-27T03:39:44.933Z,981.56
2022-09-27T03:40:44.952Z,981.52
2022-09-27T03:41:44.939Z,981.59
2022-09-27T03:42:44.897Z,981.53
2022-09-27T03:43:44.887Z,981.56
2022-09-27T03:44:44.888Z,981.59
2022-09-27T03:45:44.877Z,981.52
2022-09-27T03:46:44.857Z,981.54
2022-09-27T03:47:44.847Z,981.56
2022-09-27T03:48:44.838Z,981.53
2022-09-27T03:49:44.853Z,981.51
2022-09-27T03:50:44.811Z,981.53
2022-09-27T03:51:44.804Z,981.55
2022-09-27T03:52:44.794Z,981.54
2022-09-27T03:53:44.781Z,981.61
2022-09-27T03:54:44.769Z,981.53
2022-09-27T03:55:44.761Z,981.53
2022-09-27T03:56:44.750Z,981.56
2022-09-27T03:57:44.766Z,981.55
2022-09-27T03:58:44.727Z,981.57
2022-09-27T03:59:44.716Z,981.53
2022-09-27T04:00:44.708Z,981.54
2022-09-27T04:01:44.697Z,981.57
2022-09-27T04:02:44.686Z,981.6
2022-09-27T04:03:44.678Z,981.55
2022-09-27T04:04:44.662Z,981.61
2022-09-27T04:05:44.650Z,981.58
2022-09-27T04:06:44.649Z,981.6
2022-09-27T04:07:44.628Z,981.62
2022-09-27T04:08:44.618Z,981.64
2022-09-27T04:09:44.616Z,981.6
2022-09-27T04:10:44.596Z,981.67
2022-09-27T04:11:44.585Z,981.62
2022-09-27T04:12:44.575Z,981.65
2022-09-27T04:13:44.569Z,981.61
2022-09-27T04:14:44.554Z,981.65
2022-09-27T04:15:44.550Z,981.69
2022-09-27T04:16:44.536Z,981.66
2022-09-27T04:17:44.522Z,981.67
2022-09-27T04:18:44.512Z,981.63
2022-09-27T04:19:44.498Z,981.62
2022-09-27T04:20:44.491Z,981.65
2022-09-27T04:21:44.495Z,981.61
2022-09-27T04:22:44.467Z,981.62
2022-09-27T04:23:44.459Z,981.65
2022-09-27T04:24:44.456Z,981.69
2022-09-27T04:25:44.433Z,981.67
2022-09-27T04:26:44.428Z,981.67
2022-09-27T04:27:44.416Z,981.71
2022-09-27T04:28:44.406Z,981.64
2022-09-27T04:29:44.393Z,981.66
2022-09-27T04:30:44.379Z,981.68
2022-09-27T04:31:44.372Z,981.67
2022-09-27T04:32:44.360Z,981.73
2022-09-27T04:33:44.351Z,981.73
2022-09-27T04:34:44.336Z,981.71
2022-09-27T04:35:44.328Z,981.78
2022-09-27T04:36:44.318Z,981.78
2022-09-27T04:37:44.306Z,981.74
2022-09-27T04:38:44.292Z,981.75
2022-09-27T04:39:44.289Z,981.69
2022-09-27T04:40:44.294Z,981.69
2022-09-27T04:41:44.261Z,981.71
2022-09-27T04:42:44.252Z,981.73
2022-09-27T04:43:44.245Z,981.77
2022-09-27T04:44:44.226Z,981.76
2022-09-27T04:45:44.236Z,981.75
2022-09-27T04:46:44.208Z,981.71
2022-09-27T04:47:44.200Z,981.75
2022-09-27T04:48:44.183Z,981.79
2022-09-27T04:49:44.172Z,981.79
2022-09-27T04:50:44.175Z,981.81
2022-09-27T04:51:44.159Z,981.74
2022-09-27T04:52:44.141Z,981.79
2022-09-27T04:53:44.127Z,981.8
2022-09-27T04:54:44.117Z,981.86
2022-09-27T04:55:44.107Z,981.86
2022-09-27T04:56:44.095Z,981.81
2022-09-27T04:57:44.094Z,981.84
2022-09-27T04:58:44.072Z,981.87
2022-09-27T04:59:44.061Z,981.88
2022-09-27T05:00:44.053Z,981.84
2022-09-27T05:01:44.041Z,981.86
2022-09-27T05:02:44.027Z,981.83
2022-09-27T05:03:44.015Z,981.89
2022-09-27T05:04:44.006Z,981.87
2022-09-27T05:05:43.994Z,981.99
2022-09-27T05:06:43.991Z,981.86
2022-09-27T05:07:43.971Z,981.89
2022-09-27T05:08:43.964Z,981.9
2022-09-27T05:09:43.961Z,981.92
2022-09-27T05:10:43.942Z,982
2022-09-27T05:11:43.927Z,982.01
2022-09-27T05:12:43.917Z,982.02
2022-09-27T05:13:43.903Z,982.06
2022-09-27T05:14:43.898Z,982.03
2022-09-27T05:15:43.897Z,982.11
2022-09-27T05:16:43.872Z,982.11
2022-09-27T05:17:43.864Z,982.08
2022-09-27T05:18:43.854Z,982.16
2022-09-27T05:19:43.845Z,982.12
2022-09-27T05:20:43.846Z,982.17
2022-09-27T05:21:43.829Z,982.13
2022-09-27T05:22:43.813Z,982.16
2022-09-27T05:23:43.801Z,982.18
2022-09-27T05:24:43.788Z,982.17
2022-09-27T05:25:43.772Z,982.18
2022-09-27T05:26:43.763Z,982.22
2022-09-27T05:27:43.756Z,982.22
2022-09-27T05:28:43.745Z,982.24
2022-09-27T05:29:43.735Z,982.19
2022-09-27T05:30:43.720Z,982.23
2022-09-27T05:31:43.710Z,982.22
2022-09-27T05:32:43.700Z,982.28
2022-09-27T05:33:43.686Z,982.3
2022-09-27T05:34:43.674Z,982.26
2022-09-27T05:35:43.665Z,982.29
2022-09-27T05:36:43.656Z,982.26
2022-09-27T05:37:43.644Z,982.36
2022-09-27T05:38:43.631Z,982.37
2022-09-27T05:39:43.622Z,982.35
2022-09-27T05:40:43.609Z,982.35
2022-09-27T05:41:43.597Z,982.35
2022-09-27T05:42:43.587Z,982.35
2022-09-27T05:43:43.602Z,982.39
2022-09-27T05:44:43.566Z,982.47
2022-09-27T05:45:43.557Z,982.45
2022-09-27T05:46:43.559Z,982.53
2022-09-27T05:47:43.533Z,982.47
2022-09-27T05:48:43.521Z,982.52
2022-09-27T05:49:43.513Z,982.55
2022-09-27T05:50:43.501Z,982.54
2022-09-27T05:51:43.490Z,982.49
2022-09-27T05:52:43.483Z,982.49
2022-09-27T05:53:43.497Z,982.52
2022-09-27T05:54:43.457Z,982.6
2022-09-27T05:55:43.445Z,982.54
2022-09-27T05:56:43.438Z,982.55
2022-09-27T05:57:43.425Z,982.62
2022-09-27T05:58:43.425Z,982.61
2022-09-27T05:59:43.428Z,982.64
2022-09-27T06:00:43.406Z,982.55
2022-09-27T06:01:43.387Z,982.64
2022-09-27T06:02:43.420Z,982.56
2022-09-27T06:03:43.363Z,982.62
2022-09-27T06:04:43.350Z,982.59
2022-09-27T06:05:43.345Z,982.6
2022-09-27T06:06:43.328Z,982.56
2022-09-27T06:07:43.323Z,982.58
2022-09-27T06:08:43.305Z,982.62
2022-09-27T06:09:43.298Z,982.58
2022-09-27T06:10:43.300Z,982.61
2022-09-27T06:11:43.272Z,982.61
2022-09-27T06:12:43.262Z,982.61
2022-09-27T06:13:43.253Z,982.68
2022-09-27T06:14:43.245Z,982.67
2022-09-27T06:15:43.243Z,982.67
2022-09-27T06:16:43.218Z,982.74
2022-09-27T06:17:43.221Z,982.69
2022-09-27T06:18:43.204Z,982.75
2022-09-27T06:19:43.186Z,982.75
2022-09-27T06:20:43.181Z,982.64
2022-09-27T06:21:43.181Z,982.75
2022-09-27T06:22:43.156Z,982.74
2022-09-27T06:23:43.143Z,982.76
2022-09-27T06:24:43.136Z,982.74
2022-09-27T06:25:43.126Z,982.74
2022-09-27T06:26:43.109Z,982.7
2022-09-27T06:27:43.103Z,982.74
2022-09-27T06:28:43.092Z,982.78
2022-09-27T06:29:43.082Z,982.81
2022-09-27T06:30:43.067Z,982.79
2022-09-27T06:31:43.055Z,982.83
2022-09-27T06:32:43.050Z,982.83
2022-09-27T06:33:43.051Z,982.79
2022-09-27T06:34:43.028Z,982.81
2022-09-27T06:35:43.012Z,982.89
2022-09-27T06:36:43.008Z,982.84
2022-09-27T06:37:42.994Z,982.82
2022-09-27T06:38:42.981Z,982.85
2022-09-27T06:39:42.975Z,982.86
2022-09-27T06:40:42.966Z,982.86
2022-09-27T06:41:42.947Z,982.81
2022-09-27T06:42:42.951Z,982.81
2022-09-27T06:43:42.924Z,982.84
2022-09-27T06:44:42.914Z,982.92
2022-09-27T06:45:42.941Z,982.85
2022-09-27T06:46:42.892Z,982.88
2022-09-27T06:47:42.880Z,982.89
2022-09-27T06:48:42.871Z,982.91
2022-09-27T06:49:42.864Z,982.88
2022-09-27T06:50:42.851Z,982.96
2022-09-27T06:51:42.846Z,982.95
2022-09-27T06:52:42.826Z,983.01
2022-09-27T06:53:42.820Z,983.02
2022-09-27T06:54:42.810Z,983.08
2022-09-27T06:55:42.802Z,983.09
2022-09-27T06:56:42.784Z,983.05
2022-09-27T06:57:42.778Z,983.03
2022-09-27T06:58:42.763Z,983.13
2022-09-27T06:59:42.756Z,983.16
2022-09-27T07:00:42.740Z,983.18
2022-09-27T07:01:42.728Z,983.16
2022-09-27T07:02:42.721Z,983.21
2022-09-27T07:03:42.711Z,983.19
2022-09-27T07:04:42.702Z,983.22
2022-09-27T07:05:42.694Z,983.21
2022-09-27T07:06:42.677Z,983.2
2022-09-27T07:07:42.668Z,983.26
2022-09-27T07:08:42.732Z,983.27
2022-09-27T07:09:42.653Z,983.3
2022-09-27T07:10:42.640Z,983.29
2022-09-27T07:11:42.624Z,983.25
2022-09-27T07:12:42.613Z,983.3
2022-09-27T07:13:42.606Z,983.35
2022-09-27T07:14:42.595Z,983.33
2022-09-27T07:15:42.585Z,983.32
2022-09-27T07:16:42.577Z,983.37
2022-09-27T07:17:42.560Z,983.36
2022-09-27T07:18:42.549Z,983.4
2022-09-27T07:19:42.544Z,983.4
2022-09-27T07:20:42.528Z,983.4
2022-09-27T07:21:42.519Z,983.5
2022-09-27T07:22:42.566Z,983.47
2022-09-27T07:23:42.499Z,983.43
2022-09-27T07:24:42.477Z,983.54
2022-09-27T07:25:42.487Z,983.48
2022-09-27T07:26:42.510Z,983.45
2022-09-27T07:27:42.449Z,983.55
2022-09-27T07:28:42.436Z,983.56
2022-09-27T07:29:42.428Z,983.51
2022-09-27T07:30:42.420Z,983.58
2022-09-27T07:31:42.418Z,983.58
2022-09-27T07:32:42.393Z,983.59
2022-09-27T07:33:42.385Z,983.55
2022-09-27T07:34:42.375Z,983.62
2022-09-27T07:35:42.366Z,983.5
2022-09-27T07:36:42.348Z,983.57
2022-09-27T07:37:42.339Z,983.64
2022-09-27T07:38:42.334Z,983.63
2022-09-27T07:39:42.344Z,983.59
2022-09-27T07:40:42.314Z,983.61
2022-09-27T07:41:42.294Z,983.7
2022-09-27T07:42:42.650Z,983.7
2022-09-27T07:43:42.278Z,983.76
2022-09-27T07:44:43.570Z,983.77
2022-09-27T07:45:42.262Z,983.58
2022-09-27T07:46:42.255Z,983.71
2022-09-27T07:47:42.235Z,983.69
2022-09-27T07:48:42.225Z,983.63
2022-09-27T07:49:43.055Z,983.71
2022-09-27T07:50:42.203Z,983.81
2022-09-27T07:51:42.194Z,983.85
2022-09-27T07:52:42.221Z,983.8
2022-09-27T07:53:42.168Z,983.82
2022-09-27T07:54:42.159Z,983.83
2022-09-27T07:55:42.152Z,983.87
2022-09-27T07:56:42.152Z,983.85
2022-09-27T07:57:42.138Z,983.91
2022-09-27T07:58:42.114Z,983.94
2022-09-27T07:59:42.104Z,983.94
2022-09-27T08:00:42.101Z,983.89
2022-09-27T08:01:42.084Z,983.96
2022-09-27T08:02:42.082Z,983.98
2022-09-27T08:03:42.080Z,983.97
2022-09-27T08:04:42.051Z,983.92
2022-09-27T08:05:42.059Z,983.98
2022-09-27T08:06:42.027Z,983.96
2022-09-27T08:07:42.048Z,983.96
2022-09-27T08:08:42.036Z,983.98
2022-09-27T08:09:41.995Z,984.02
2022-09-27T08:10:41.987Z,983.96
2022-09-27T08:11:41.977Z,984.03
2022-09-27T08:12:41.962Z,984.01
2022-09-27T08:13:41.958Z,984.02
2022-09-27T08:14:41.943Z,984
2022-09-27T08:15:41.933Z,984
2022-09-27T08:16:41.919Z,984.07
2022-09-27T08:17:41.910Z,984.01
2022-09-27T08:18:41.902Z,984.09
2022-09-27T08:19:41.895Z,984.15
2022-09-27T08:20:41.884Z,984.1
2022-09-27T08:21:41.892Z,984.06
2022-09-27T08:22:41.887Z,984.08
2022-09-27T08:23:41.854Z,984.14
2022-09-27T08:24:41.840Z,984.16
2022-09-27T08:25:41.901Z,984.1
2022-09-27T08:26:41.825Z,984.17
2022-09-27T08:27:41.815Z,984.15
2022-09-27T08:28:41.802Z,984.15
2022-09-27T08:29:41.787Z,984.21
2022-09-27T08:30:41.769Z,984.2
2022-09-27T08:31:41.810Z,984.22
2022-09-27T08:32:41.752Z,984.25
2022-09-27T08:33:41.741Z,984.21
2022-09-27T08:34:41.731Z,984.24
2022-09-27T08:35:41.717Z,984.16
2022-09-27T08:36:41.709Z,984.22
2022-09-27T08:37:41.699Z,984.3
2022-09-27T08:38:41.694Z,984.27
2022-09-27T08:39:41.686Z,984.29
2022-09-27T08:40:41.665Z,984.3
2022-09-27T08:41:41.650Z,984.27
2022-09-27T08:42:41.643Z,984.37
2022-09-27T08:43:41.641Z,984.31
2022-09-27T08:44:41.650Z,984.36
2022-09-27T08:45:41.622Z,984.25
2022-09-27T08:46:41.631Z,984.26
2022-09-27T08:47:41.590Z,984.38
2022-09-27T08:48:41.582Z,984.32
2022-09-27T08:49:41.591Z,984.28
2022-09-27T08:50:41.595Z,984.32
2022-09-27T08:51:41.545Z,984.27
2022-09-27T08:52:41.541Z,984.26
2022-09-27T08:53:41.531Z,984.23
2022-09-27T08:54:41.536Z,984.24
2022-09-27T08:55:41.531Z,984.19
2022-09-27T08:56:41.499Z,984.23
2022-09-27T08:57:41.517Z,984.17
2022-09-27T08:58:41.468Z,984.21
2022-09-27T08:59:41.458Z,984.23
2022-09-27T09:00:41.462Z,984.21
2022-09-27T09:01:41.438Z,984.32
2022-09-27T09:02:41.452Z,984.28
2022-09-27T09:03:41.420Z,984.24
2022-09-27T09:04:41.451Z,984.26
2022-09-27T09:05:41.400Z,984.23
2022-09-27T09:06:41.413Z,984.24
2022-09-27T09:07:41.415Z,984.27
2022-09-27T09:08:41.361Z,984.31
2022-09-27T09:09:41.352Z,984.28
2022-09-27T09:10:41.343Z,984.26
2022-09-27T09:11:41.332Z,984.32
2022-09-27T09:12:41.323Z,984.35
2022-09-27T09:13:41.344Z,984.36
2022-09-27T09:14:41.300Z,984.29
2022-09-27T09:15:41.283Z,984.3
2022-09-27T09:16:41.375Z,984.39
2022-09-27T09:17:41.267Z,984.35
2022-09-27T09:18:41.256Z,984.45
2022-09-27T09:19:41.257Z,984.37
2022-09-27T09:20:41.295Z,984.33
2022-09-27T09:21:41.224Z,984.36
2022-09-27T09:22:41.249Z,984.39
2022-09-27T09:23:41.210Z,984.47
2022-09-27T09:24:41.197Z,984.42
2022-09-27T09:25:41.181Z,984.41
2022-09-27T09:26:41.167Z,984.46
2022-09-27T09:27:41.160Z,984.43
2022-09-27T09:28:41.149Z,984.35
2022-09-27T09:29:41.141Z,984.38
2022-09-27T09:30:41.134Z,984.39
2022-09-27T09:31:41.156Z,984.4
2022-09-27T09:32:41.109Z,984.43
2022-09-27T09:33:41.092Z,984.43
2022-09-27T09:34:41.085Z,984.43
2022-09-27T09:35:41.079Z,984.43
2022-09-27T09:36:41.068Z,984.42
2022-09-27T09:37:41.048Z,984.33
2022-09-27T09:38:41.041Z,984.41
2022-09-27T09:39:41.027Z,984.41
2022-09-27T09:40:41.014Z,984.38
2022-09-27T09:41:41.012Z,984.42
2022-09-27T09:42:41.031Z,984.39
2022-09-27T09:43:40.982Z,984.39
2022-09-27T09:44:40.982Z,984.42
2022-09-27T09:45:40.967Z,984.41
2022-09-27T09:46:40.960Z,984.37
2022-09-27T09:47:40.942Z,984.33
2022-09-27T09:48:40.927Z,984.35
2022-09-27T09:49:40.929Z,984.35
2022-09-27T09:50:40.910Z,984.32
2022-09-27T09:51:40.899Z,984.24
2022-09-27T09:52:40.897Z,984.25
2022-09-27T09:53:40.877Z,984.28
2022-09-27T09:54:40.866Z,984.29
2022-09-27T09:55:40.854Z,984.26
2022-09-27T09:56:40.844Z,984.2
2022-09-27T09:57:40.829Z,984.18
2022-09-27T09:58:40.875Z,984.19
2022-09-27T09:59:40.810Z,984.28
2022-09-27T10:00:40.813Z,984.21
2022-09-27T10:01:40.790Z,984.26
2022-09-27T10:02:40.776Z,984.13
2022-09-27T10:03:40.769Z,984.23
2022-09-27T10:04:40.754Z,984.19
2022-09-27T10:05:40.768Z,984.18
2022-09-27T10:06:40.734Z,984.06
2022-09-27T10:07:40.724Z,984.1
2022-09-27T10:08:40.723Z,984.13
2022-09-27T10:09:40.707Z,984.13
2022-09-27T10:10:40.689Z,984.12
2022-09-27T10:11:40.701Z,984.13
2022-09-27T10:12:40.673Z,984.21
2022-09-27T10:13:40.659Z,984.12
2022-09-27T10:14:40.644Z,984.26
2022-09-27T10:15:40.638Z,984.2
2022-09-27T10:16:40.626Z,984.11
2022-09-27T10:17:40.619Z,984.06
2022-09-27T10:18:40.633Z,984.11
2022-09-27T10:19:40.592Z,984.08
2022-09-27T10:20:40.584Z,984.11
2022-09-27T10:21:40.574Z,984.15
2022-09-27T10:22:40.565Z,984.12
2022-09-27T10:23:40.554Z,984.14
2022-09-27T10:24:40.573Z,984.14
2022-09-27T10:25:40.533Z,984.09
2022-09-27T10:26:40.522Z,984.07
2022-09-27T10:27:40.512Z,984.13
2022-09-27T10:28:40.513Z,984.16
2022-09-27T10:29:40.490Z,984.17
2022-09-27T10:30:40.477Z,984.23
2022-09-27T10:31:40.469Z,984.22
2022-09-27T10:32:40.461Z,984.18
2022-09-27T10:33:40.621Z,984.26
2022-09-27T10:34:40.442Z,984.26
2022-09-27T10:35:40.417Z,984.16
2022-09-27T10:36:40.437Z,984.4
2022-09-27T10:37:40.403Z,984.18
2022-09-27T10:38:40.398Z,984.22
2022-09-27T10:39:40.387Z,984.26
2022-09-27T10:40:40.380Z,984.14
2022-09-27T10:41:40.362Z,984.21
2022-09-27T10:42:40.344Z,984.24
2022-09-27T10:43:40.335Z,984.29
2022-09-27T10:44:40.327Z,984.31
2022-09-27T10:45:47.928Z,984.18
2022-09-27T10:46:40.329Z,984.39
2022-09-27T10:47:40.306Z,984.32
2022-09-27T10:48:48.096Z,984.21
2022-09-27T10:49:47.948Z,984.24
2022-09-27T10:50:40.281Z,984.09
2022-09-27T10:51:47.926Z,984.32
2022-09-27T10:52:47.832Z,984.35
2022-09-27T10:53:40.247Z,984.11
2022-09-27T10:54:40.221Z,983.91
2022-09-27T10:55:40.222Z,984.32
2022-09-27T10:56:40.206Z,984.48
2022-09-27T10:57:47.981Z,984.43
2022-09-27T10:58:41.177Z,984.07
2022-09-27T10:59:40.258Z,984.09
2022-09-27T11:00:41.176Z,984.23
2022-09-27T11:01:40.224Z,984.42
2022-09-27T11:02:40.145Z,984.47
2022-09-27T11:03:40.125Z,984.44
2022-09-27T11:04:40.113Z,984.5
2022-09-27T11:05:40.148Z,984.63
2022-09-27T11:06:40.091Z,984.64
2022-09-27T11:07:40.077Z,984.59
2022-09-27T11:08:40.069Z,984.61
2022-09-27T11:09:40.059Z,984.67
2022-09-27T11:10:40.045Z,984.64
2022-09-27T11:11:47.732Z,984.69
2022-09-27T11:12:40.505Z,984.69
2022-09-27T11:13:47.610Z,984.65
2022-09-27T11:14:39.999Z,984.7
2022-09-27T11:15:40.033Z,984.7
2022-09-27T11:16:39.990Z,984.74
2022-09-27T11:17:39.986Z,984.67
2022-09-27T11:18:39.968Z,984.71
2022-09-27T11:19:39.959Z,984.71
2022-09-27T11:20:47.521Z,984.7
2022-09-27T11:21:39.944Z,984.65
2022-09-27T11:22:47.526Z,984.71
2022-09-27T11:23:47.486Z,984.74
2022-09-27T11:24:39.899Z,984.76
2022-09-27T11:25:39.924Z,984.77
2022-09-27T11:26:39.873Z,984.82
2022-09-27T11:27:39.913Z,984.75
2022-09-27T11:28:39.869Z,984.78
2022-09-27T11:29:39.843Z,984.79
2022-09-27T11:30:39.830Z,984.8
2022-09-27T11:31:39.831Z,984.76
2022-09-27T11:32:39.817Z,984.74
2022-09-27T11:33:39.841Z,984.78
2022-09-27T11:34:39.795Z,984.71
2022-09-27T11:35:39.780Z,984.75
2022-09-27T11:36:39.771Z,984.77
2022-09-27T11:37:39.771Z,984.64
2022-09-27T11:38:39.768Z,984.64
2022-09-27T11:39:39.738Z,984.65
2022-09-27T11:40:39.749Z,984.72
2022-09-27T11:41:39.714Z,984.62
2022-09-27T11:42:39.700Z,984.58
2022-09-27T11:43:39.699Z,984.59
2022-09-27T11:44:39.683Z,984.55
2022-09-27T11:45:39.670Z,984.6
2022-09-27T11:46:39.661Z,984.52
2022-09-27T11:47:39.648Z,984.55
2022-09-27T11:48:39.643Z,984.58
2022-09-27T11:49:39.629Z,984.53
2022-09-27T11:50:39.614Z,984.55
2022-09-27T11:51:39.614Z,984.56
2022-09-27T11:52:39.598Z,984.59
2022-09-27T11:53:39.585Z,984.74
2022-09-27T11:54:39.586Z,984.55
2022-09-27T11:55:39.572Z,984.5
2022-09-27T11:56:39.553Z,984.53
2022-09-27T11:57:39.545Z,984.52
2022-09-27T11:58:39.540Z,984.49
2022-09-27T11:59:39.527Z,984.59
2022-09-27T12:00:39.523Z,984.7
2022-09-27T12:01:39.516Z,984.48
2022-09-27T12:02:39.490Z,984.65
2022-09-27T12:03:39.480Z,984.55
2022-09-27T12:04:39.498Z,984.49
2022-09-27T12:05:39.469Z,984.2
2022-09-27T12:06:39.450Z,984.25
2022-09-27T12:07:39.444Z,984.33
2022-09-27T12:08:39.436Z,984.43
2022-09-27T12:09:39.417Z,984.44
2022-09-27T12:10:39.404Z,984.75
2022-09-27T12:11:39.392Z,984.66
2022-09-27T12:12:39.388Z,984.68
2022-09-27T12:13:39.379Z,984.59
2022-09-27T12:14:39.361Z,984.21
2022-09-27T12:15:39.352Z,984.15
2022-09-27T12:16:39.344Z,984.15
2022-09-27T12:17:39.340Z,984.15
2022-09-27T12:18:39.324Z,984.25
2022-09-27T12:19:39.353Z,984.2
2022-09-27T12:20:39.299Z,984.29
2022-09-27T12:21:39.308Z,984.67
2022-09-27T12:22:39.278Z,984.32
2022-09-27T12:23:39.266Z,984.7
2022-09-27T12:24:39.255Z,984.34
2022-09-27T12:25:39.244Z,984.6
2022-09-27T12:26:39.237Z,984.64
2022-09-27T12:27:39.227Z,984.7
2022-09-27T12:28:39.232Z,984.54
2022-09-27T12:29:39.202Z,984.22
2022-09-27T12:30:39.194Z,984.21